sensor_id;sensor_type;location;lat;lon;timestamp;temperature;humidity
16032;DHT22;8120;48.308;8.914;2022-12-29T00:02:01;9.10;60.90
16032;DHT22;8120;48.308;8.914;2022-12-29T00:04:29;9.10;60.80
16032;DHT22;8120;48.308;8.914;2022-12-29T00:06:57;9.20;60.10
16032;DHT22;8120;48.308;8.914;2022-12-29T00:09:25;9.30;60.10
16032;DHT22;8120;48.308;8.914;2022-12-29T00:11:54;9.30;60.10
16032;DHT22;8120;48.308;8.914;2022-12-29T00:14:22;9.40;59.60
16032;DHT22;8120;48.308;8.914;2022-12-29T00:17:08;9.40;59.70
16032;DHT22;8120;48.308;8.914;2022-12-29T00:19:35;9.40;59.70
16032;DHT22;8120;48.308;8.914;2022-12-29T00:22:21;9.40;59.20
16032;DHT22;8120;48.308;8.914;2022-12-29T00:25:08;9.60;58.80
16032;DHT22;8120;48.308;8.914;2022-12-29T00:27:55;9.60;58.80
16032;DHT22;8120;48.308;8.914;2022-12-29T00:30:41;9.50;59.20
16032;DHT22;8120;48.308;8.914;2022-12-29T00:33:29;9.60;59.10
16032;DHT22;8120;48.308;8.914;2022-12-29T00:36:17;9.50;59.20
16032;DHT22;8120;48.308;8.914;2022-12-29T00:38:50;9.60;58.60
16032;DHT22;8120;48.308;8.914;2022-12-29T00:41:37;9.60;59.00
16032;DHT22;8120;48.308;8.914;2022-12-29T00:44:23;9.60;58.70
16032;DHT22;8120;48.308;8.914;2022-12-29T00:46:51;9.60;58.80
16032;DHT22;8120;48.308;8.914;2022-12-29T00:49:19;9.80;58.20
16032;DHT22;8120;48.308;8.914;2022-12-29T00:52:01;9.70;58.50
16032;DHT22;8120;48.308;8.914;2022-12-29T00:54:31;9.60;58.70
16032;DHT22;8120;48.308;8.914;2022-12-29T00:57:00;9.50;59.10
16032;DHT22;8120;48.308;8.914;2022-12-29T00:59:29;9.50;59.40
16032;DHT22;8120;48.308;8.914;2022-12-29T01:01:57;9.40;59.50
16032;DHT22;8120;48.308;8.914;2022-12-29T01:04:26;9.50;59.10
16032;DHT22;8120;48.308;8.914;2022-12-29T01:06:54;9.40;59.20
16032;DHT22;8120;48.308;8.914;2022-12-29T01:09:21;9.40;59.20
16032;DHT22;8120;48.308;8.914;2022-12-29T01:12:08;9.40;59.40
16032;DHT22;8120;48.308;8.914;2022-12-29T01:14:38;9.40;59.20
16032;DHT22;8120;48.308;8.914;2022-12-29T01:17:06;9.40;59.40
16032;DHT22;8120;48.308;8.914;2022-12-29T01:19:34;9.40;58.90
16032;DHT22;8120;48.308;8.914;2022-12-29T01:22:01;9.60;58.20
16032;DHT22;8120;48.308;8.914;2022-12-29T01:24:29;9.60;58.70
16032;DHT22;8120;48.308;8.914;2022-12-29T01:26:57;9.50;58.70
16032;DHT22;8120;48.308;8.914;2022-12-29T01:29:25;9.60;58.10
16032;DHT22;8120;48.308;8.914;2022-12-29T01:31:54;9.60;58.10
16032;DHT22;8120;48.308;8.914;2022-12-29T01:34:22;9.70;57.70
16032;DHT22;8120;48.308;8.914;2022-12-29T01:36:50;9.70;57.80
16032;DHT22;8120;48.308;8.914;2022-12-29T01:39:18;9.60;58.10
16032;DHT22;8120;48.308;8.914;2022-12-29T01:41:45;9.70;57.80
16032;DHT22;8120;48.308;8.914;2022-12-29T01:44:41;9.60;57.90
16032;DHT22;8120;48.308;8.914;2022-12-29T01:47:22;9.70;57.20
16032;DHT22;8120;48.308;8.914;2022-12-29T01:49:52;9.80;57.10
16032;DHT22;8120;48.308;8.914;2022-12-29T01:52:23;9.90;56.10
16032;DHT22;8120;48.308;8.914;2022-12-29T01:54:53;9.90;56.10
16032;DHT22;8120;48.308;8.914;2022-12-29T01:57:25;9.80;56.50
16032;DHT22;8120;48.308;8.914;2022-12-29T01:59:59;9.90;55.90
16032;DHT22;8120;48.308;8.914;2022-12-29T02:02:29;9.90;56.40
16032;DHT22;8120;48.308;8.914;2022-12-29T02:04:59;9.80;56.60
16032;DHT22;8120;48.308;8.914;2022-12-29T02:07:31;9.80;56.20
16032;DHT22;8120;48.308;8.914;2022-12-29T02:10:00;9.80;56.80
16032;DHT22;8120;48.308;8.914;2022-12-29T02:12:29;9.70;56.60
16032;DHT22;8120;48.308;8.914;2022-12-29T02:15:00;9.70;56.80
16032;DHT22;8120;48.308;8.914;2022-12-29T02:17:39;9.60;57.10
16032;DHT22;8120;48.308;8.914;2022-12-29T02:20:32;9.60;56.70
16032;DHT22;8120;48.308;8.914;2022-12-29T02:23:30;9.80;56.00
16032;DHT22;8120;48.308;8.914;2022-12-29T02:26:38;9.60;56.30
16032;DHT22;8120;48.308;8.914;2022-12-29T02:29:29;9.60;56.30
16032;DHT22;8120;48.308;8.914;2022-12-29T02:32:03;9.60;56.40
16032;DHT22;8120;48.308;8.914;2022-12-29T02:34:40;9.60;55.90
16032;DHT22;8120;48.308;8.914;2022-12-29T02:37:17;9.70;55.70
16032;DHT22;8120;48.308;8.914;2022-12-29T02:39:52;9.60;56.00
16032;DHT22;8120;48.308;8.914;2022-12-29T02:42:31;9.60;56.20
16032;DHT22;8120;48.308;8.914;2022-12-29T02:45:05;9.60;55.90
16032;DHT22;8120;48.308;8.914;2022-12-29T02:47:40;9.60;56.20
16032;DHT22;8120;48.308;8.914;2022-12-29T02:50:17;9.50;56.30
16032;DHT22;8120;48.308;8.914;2022-12-29T02:52:49;9.50;56.10
16032;DHT22;8120;48.308;8.914;2022-12-29T02:55:18;9.50;56.20
16032;DHT22;8120;48.308;8.914;2022-12-29T02:57:45;9.50;56.60
16032;DHT22;8120;48.308;8.914;2022-12-29T03:00:15;9.50;56.40
16032;DHT22;8120;48.308;8.914;2022-12-29T03:03:12;9.40;56.60
16032;DHT22;8120;48.308;8.914;2022-12-29T03:06:05;9.40;56.80
16032;DHT22;8120;48.308;8.914;2022-12-29T03:08:46;9.40;56.70
16032;DHT22;8120;48.308;8.914;2022-12-29T03:11:16;9.40;57.20
16032;DHT22;8120;48.308;8.914;2022-12-29T03:14:05;9.30;57.00
16032;DHT22;8120;48.308;8.914;2022-12-29T03:16:58;9.30;57.60
16032;DHT22;8120;48.308;8.914;2022-12-29T03:19:32;9.20;57.90
16032;DHT22;8120;48.308;8.914;2022-12-29T03:22:03;9.10;58.10
16032;DHT22;8120;48.308;8.914;2022-12-29T03:24:52;9.10;58.10
16032;DHT22;8120;48.308;8.914;2022-12-29T03:27:23;9.10;58.20
16032;DHT22;8120;48.308;8.914;2022-12-29T03:30:02;9.00;58.70
16032;DHT22;8120;48.308;8.914;2022-12-29T03:32:34;9.00;58.60
16032;DHT22;8120;48.308;8.914;2022-12-29T03:35:05;9.00;59.20
16032;DHT22;8120;48.308;8.914;2022-12-29T03:37:38;9.00;59.00
16032;DHT22;8120;48.308;8.914;2022-12-29T03:40:08;9.10;58.70
16032;DHT22;8120;48.308;8.914;2022-12-29T03:42:37;9.00;59.20
16032;DHT22;8120;48.308;8.914;2022-12-29T03:45:07;9.00;59.40
16032;DHT22;8120;48.308;8.914;2022-12-29T03:47:34;9.10;59.40
16032;DHT22;8120;48.308;8.914;2022-12-29T03:50:05;9.20;58.60
16032;DHT22;8120;48.308;8.914;2022-12-29T03:52:35;9.20;58.80
16032;DHT22;8120;48.308;8.914;2022-12-29T03:55:03;9.20;59.20
16032;DHT22;8120;48.308;8.914;2022-12-29T03:57:31;9.10;59.40
16032;DHT22;8120;48.308;8.914;2022-12-29T03:59:59;9.00;59.60
16032;DHT22;8120;48.308;8.914;2022-12-29T04:02:26;9.00;59.80
16032;DHT22;8120;48.308;8.914;2022-12-29T04:04:55;8.90;60.30
16032;DHT22;8120;48.308;8.914;2022-12-29T04:07:24;8.90;60.20
16032;DHT22;8120;48.308;8.914;2022-12-29T04:09:51;8.90;60.00
16032;DHT22;8120;48.308;8.914;2022-12-29T04:12:19;9.00;59.80
16032;DHT22;8120;48.308;8.914;2022-12-29T04:14:47;9.00;59.60
16032;DHT22;8120;48.308;8.914;2022-12-29T04:17:15;9.20;59.30
16032;DHT22;8120;48.308;8.914;2022-12-29T04:19:44;9.40;58.90
16032;DHT22;8120;48.308;8.914;2022-12-29T04:22:11;9.40;58.20
16032;DHT22;8120;48.308;8.914;2022-12-29T04:24:41;9.50;58.50
16032;DHT22;8120;48.308;8.914;2022-12-29T04:27:09;9.40;58.80
16032;DHT22;8120;48.308;8.914;2022-12-29T04:29:36;9.40;58.40
16032;DHT22;8120;48.308;8.914;2022-12-29T04:32:04;9.50;58.10
16032;DHT22;8120;48.308;8.914;2022-12-29T04:34:33;9.60;57.90
16032;DHT22;8120;48.308;8.914;2022-12-29T04:37:00;9.50;58.50
16032;DHT22;8120;48.308;8.914;2022-12-29T04:39:28;9.30;58.80
16032;DHT22;8120;48.308;8.914;2022-12-29T04:41:57;9.30;59.00
16032;DHT22;8120;48.308;8.914;2022-12-29T04:44:25;9.20;59.70
16032;DHT22;8120;48.308;8.914;2022-12-29T04:46:53;9.10;60.00
16032;DHT22;8120;48.308;8.914;2022-12-29T04:49:21;9.10;59.80
16032;DHT22;8120;48.308;8.914;2022-12-29T04:51:49;9.00;60.50
16032;DHT22;8120;48.308;8.914;2022-12-29T04:54:16;8.90;61.00
16032;DHT22;8120;48.308;8.914;2022-12-29T04:56:44;8.80;61.10
16032;DHT22;8120;48.308;8.914;2022-12-29T04:59:13;8.90;60.60
16032;DHT22;8120;48.308;8.914;2022-12-29T05:01:41;8.80;60.80
16032;DHT22;8120;48.308;8.914;2022-12-29T05:04:09;9.00;60.10
16032;DHT22;8120;48.308;8.914;2022-12-29T05:06:38;9.10;60.10
16032;DHT22;8120;48.308;8.914;2022-12-29T05:09:05;9.00;60.60
16032;DHT22;8120;48.308;8.914;2022-12-29T05:11:33;9.10;60.30
16032;DHT22;8120;48.308;8.914;2022-12-29T05:14:01;9.10;60.60
16032;DHT22;8120;48.308;8.914;2022-12-29T05:16:30;9.10;60.70
16032;DHT22;8120;48.308;8.914;2022-12-29T05:18:58;9.20;60.50
16032;DHT22;8120;48.308;8.914;2022-12-29T05:21:26;9.20;60.50
16032;DHT22;8120;48.308;8.914;2022-12-29T05:23:54;9.20;60.90
16032;DHT22;8120;48.308;8.914;2022-12-29T05:26:21;9.20;60.60
16032;DHT22;8120;48.308;8.914;2022-12-29T05:28:49;9.20;60.90
16032;DHT22;8120;48.308;8.914;2022-12-29T05:31:17;9.10;61.10
16032;DHT22;8120;48.308;8.914;2022-12-29T05:33:46;9.00;61.40
16032;DHT22;8120;48.308;8.914;2022-12-29T05:36:14;9.10;61.70
16032;DHT22;8120;48.308;8.914;2022-12-29T05:38:44;9.20;61.60
16032;DHT22;8120;48.308;8.914;2022-12-29T05:41:12;9.30;61.60
16032;DHT22;8120;48.308;8.914;2022-12-29T05:43:40;9.30;61.60
16032;DHT22;8120;48.308;8.914;2022-12-29T05:46:07;9.30;62.10
16032;DHT22;8120;48.308;8.914;2022-12-29T05:48:35;9.30;62.20
16032;DHT22;8120;48.308;8.914;2022-12-29T05:51:05;9.40;61.80
16032;DHT22;8120;48.308;8.914;2022-12-29T05:53:33;9.30;62.50
16032;DHT22;8120;48.308;8.914;2022-12-29T05:56:01;9.20;63.10
16032;DHT22;8120;48.308;8.914;2022-12-29T05:58:28;9.10;62.70
16032;DHT22;8120;48.308;8.914;2022-12-29T06:00:56;9.20;62.90
16032;DHT22;8120;48.308;8.914;2022-12-29T06:03:24;9.30;62.60
16032;DHT22;8120;48.308;8.914;2022-12-29T06:05:52;9.30;62.60
16032;DHT22;8120;48.308;8.914;2022-12-29T06:08:22;9.30;62.70
16032;DHT22;8120;48.308;8.914;2022-12-29T06:10:50;9.40;62.80
16032;DHT22;8120;48.308;8.914;2022-12-29T06:13:18;9.40;62.70
16032;DHT22;8120;48.308;8.914;2022-12-29T06:15:48;9.40;63.10
16032;DHT22;8120;48.308;8.914;2022-12-29T06:18:16;9.40;63.10
16032;DHT22;8120;48.308;8.914;2022-12-29T06:20:46;9.40;63.30
16032;DHT22;8120;48.308;8.914;2022-12-29T06:23:14;9.40;63.20
16032;DHT22;8120;48.308;8.914;2022-12-29T06:25:44;9.40;63.20
16032;DHT22;8120;48.308;8.914;2022-12-29T06:28:12;9.40;63.40
16032;DHT22;8120;48.308;8.914;2022-12-29T06:30:43;9.50;63.00
16032;DHT22;8120;48.308;8.914;2022-12-29T06:33:11;9.50;63.10
16032;DHT22;8120;48.308;8.914;2022-12-29T06:35:39;9.50;63.00
16032;DHT22;8120;48.308;8.914;2022-12-29T06:38:07;9.40;63.60
16032;DHT22;8120;48.308;8.914;2022-12-29T06:40:35;9.40;63.50
16032;DHT22;8120;48.308;8.914;2022-12-29T06:43:04;9.40;63.60
16032;DHT22;8120;48.308;8.914;2022-12-29T06:45:32;9.40;63.50
16032;DHT22;8120;48.308;8.914;2022-12-29T06:48:00;9.50;63.30
16032;DHT22;8120;48.308;8.914;2022-12-29T06:50:28;9.50;63.30
16032;DHT22;8120;48.308;8.914;2022-12-29T06:52:56;9.50;63.40
16032;DHT22;8120;48.308;8.914;2022-12-29T06:55:24;9.40;63.70
16032;DHT22;8120;48.308;8.914;2022-12-29T06:57:54;9.30;63.90
16032;DHT22;8120;48.308;8.914;2022-12-29T07:00:23;9.40;63.70
16032;DHT22;8120;48.308;8.914;2022-12-29T07:02:51;9.40;63.90
16032;DHT22;8120;48.308;8.914;2022-12-29T07:05:19;9.30;64.10
16032;DHT22;8120;48.308;8.914;2022-12-29T07:07:47;9.30;64.40
16032;DHT22;8120;48.308;8.914;2022-12-29T07:10:15;9.40;64.30
16032;DHT22;8120;48.308;8.914;2022-12-29T07:12:43;9.40;64.30
16032;DHT22;8120;48.308;8.914;2022-12-29T07:15:10;9.30;64.70
16032;DHT22;8120;48.308;8.914;2022-12-29T07:17:40;9.20;65.10
16032;DHT22;8120;48.308;8.914;2022-12-29T07:20:09;9.30;64.70
16032;DHT22;8120;48.308;8.914;2022-12-29T07:22:37;9.40;64.10
16032;DHT22;8120;48.308;8.914;2022-12-29T07:25:06;9.40;64.30
16032;DHT22;8120;48.308;8.914;2022-12-29T07:27:34;9.30;64.50
16032;DHT22;8120;48.308;8.914;2022-12-29T07:30:02;9.30;64.00
16032;DHT22;8120;48.308;8.914;2022-12-29T07:32:32;9.50;63.50
16032;DHT22;8120;48.308;8.914;2022-12-29T07:35:02;9.50;63.30
16032;DHT22;8120;48.308;8.914;2022-12-29T07:37:30;9.40;63.20
16032;DHT22;8120;48.308;8.914;2022-12-29T07:39:58;9.50;62.60
16032;DHT22;8120;48.308;8.914;2022-12-29T07:42:26;9.50;62.30
16032;DHT22;8120;48.308;8.914;2022-12-29T07:44:53;9.50;62.40
16032;DHT22;8120;48.308;8.914;2022-12-29T07:47:21;9.50;61.70
16032;DHT22;8120;48.308;8.914;2022-12-29T07:49:50;9.70;61.30
16032;DHT22;8120;48.308;8.914;2022-12-29T07:52:19;9.80;61.20
16032;DHT22;8120;48.308;8.914;2022-12-29T07:54:47;9.70;61.40
16032;DHT22;8120;48.308;8.914;2022-12-29T07:57:14;9.90;60.70
16032;DHT22;8120;48.308;8.914;2022-12-29T07:59:42;9.90;60.20
16032;DHT22;8120;48.308;8.914;2022-12-29T08:02:10;10.00;59.90
16032;DHT22;8120;48.308;8.914;2022-12-29T08:04:39;10.20;59.00
16032;DHT22;8120;48.308;8.914;2022-12-29T08:07:06;10.30;59.40
16032;DHT22;8120;48.308;8.914;2022-12-29T08:09:36;10.30;59.20
16032;DHT22;8120;48.308;8.914;2022-12-29T08:12:04;10.40;58.90
16032;DHT22;8120;48.308;8.914;2022-12-29T08:14:31;10.50;58.20
16032;DHT22;8120;48.308;8.914;2022-12-29T08:17:00;10.50;58.60
16032;DHT22;8120;48.308;8.914;2022-12-29T08:19:27;10.50;58.60
16032;DHT22;8120;48.308;8.914;2022-12-29T08:21:55;10.60;58.50
16032;DHT22;8120;48.308;8.914;2022-12-29T08:24:23;10.50;58.60
16032;DHT22;8120;48.308;8.914;2022-12-29T08:26:53;10.50;58.90
16032;DHT22;8120;48.308;8.914;2022-12-29T08:29:21;10.60;58.10
16032;DHT22;8120;48.308;8.914;2022-12-29T08:31:49;10.80;58.20
16032;DHT22;8120;48.308;8.914;2022-12-29T08:34:17;10.80;58.00
16032;DHT22;8120;48.308;8.914;2022-12-29T08:36:45;10.70;58.30
16032;DHT22;8120;48.308;8.914;2022-12-29T08:39:12;10.70;58.50
16032;DHT22;8120;48.308;8.914;2022-12-29T08:41:40;10.70;59.00
16032;DHT22;8120;48.308;8.914;2022-12-29T08:44:09;10.60;59.30
16032;DHT22;8120;48.308;8.914;2022-12-29T08:46:37;10.50;60.60
16032;DHT22;8120;48.308;8.914;2022-12-29T08:49:05;10.40;61.50
16032;DHT22;8120;48.308;8.914;2022-12-29T08:51:33;10.30;63.20
16032;DHT22;8120;48.308;8.914;2022-12-29T08:54:01;10.10;64.50
16032;DHT22;8120;48.308;8.914;2022-12-29T08:56:30;10.00;65.30
16032;DHT22;8120;48.308;8.914;2022-12-29T08:58:58;9.90;65.90
16032;DHT22;8120;48.308;8.914;2022-12-29T09:01:27;9.80;66.20
16032;DHT22;8120;48.308;8.914;2022-12-29T09:03:57;9.80;65.80
16032;DHT22;8120;48.308;8.914;2022-12-29T09:06:43;9.70;66.50
16032;DHT22;8120;48.308;8.914;2022-12-29T09:09:11;9.80;65.60
16032;DHT22;8120;48.308;8.914;2022-12-29T09:11:39;9.70;66.00
16032;DHT22;8120;48.308;8.914;2022-12-29T09:14:07;9.80;65.40
16032;DHT22;8120;48.308;8.914;2022-12-29T09:16:37;9.80;65.90
16032;DHT22;8120;48.308;8.914;2022-12-29T09:19:05;9.70;66.70
16032;DHT22;8120;48.308;8.914;2022-12-29T09:21:33;9.70;66.10
16032;DHT22;8120;48.308;8.914;2022-12-29T09:24:01;9.70;66.10
16032;DHT22;8120;48.308;8.914;2022-12-29T09:26:29;9.70;66.20
16032;DHT22;8120;48.308;8.914;2022-12-29T09:28:57;9.70;66.00
16032;DHT22;8120;48.308;8.914;2022-12-29T09:31:24;9.70;65.80
16032;DHT22;8120;48.308;8.914;2022-12-29T09:33:54;9.70;65.80
16032;DHT22;8120;48.308;8.914;2022-12-29T09:36:21;9.80;65.70
16032;DHT22;8120;48.308;8.914;2022-12-29T09:38:49;9.70;65.60
16032;DHT22;8120;48.308;8.914;2022-12-29T09:41:22;9.70;65.90
16032;DHT22;8120;48.308;8.914;2022-12-29T09:43:59;9.80;65.50
16032;DHT22;8120;48.308;8.914;2022-12-29T09:46:34;9.90;65.70
16032;DHT22;8120;48.308;8.914;2022-12-29T09:49:16;9.90;65.60
16032;DHT22;8120;48.308;8.914;2022-12-29T09:51:48;9.90;65.80
16032;DHT22;8120;48.308;8.914;2022-12-29T09:54:24;10.00;65.50
16032;DHT22;8120;48.308;8.914;2022-12-29T09:56:55;10.00;65.50
16032;DHT22;8120;48.308;8.914;2022-12-29T09:59:29;10.00;65.60
16032;DHT22;8120;48.308;8.914;2022-12-29T10:02:08;10.00;65.70
16032;DHT22;8120;48.308;8.914;2022-12-29T10:04:42;10.00;66.00
16032;DHT22;8120;48.308;8.914;2022-12-29T10:07:17;10.00;66.10
16032;DHT22;8120;48.308;8.914;2022-12-29T10:10:03;10.00;66.30
16032;DHT22;8120;48.308;8.914;2022-12-29T10:12:42;10.00;66.30
16032;DHT22;8120;48.308;8.914;2022-12-29T10:15:18;10.00;66.90
16032;DHT22;8120;48.308;8.914;2022-12-29T10:17:58;9.90;67.00
16032;DHT22;8120;48.308;8.914;2022-12-29T10:20:36;9.90;67.40
16032;DHT22;8120;48.308;8.914;2022-12-29T10:23:20;9.90;67.80
16032;DHT22;8120;48.308;8.914;2022-12-29T10:25:54;9.80;68.00
16032;DHT22;8120;48.308;8.914;2022-12-29T10:28:24;9.90;67.80
16032;DHT22;8120;48.308;8.914;2022-12-29T10:30:59;9.80;68.20
16032;DHT22;8120;48.308;8.914;2022-12-29T10:33:37;9.90;67.90
16032;DHT22;8120;48.308;8.914;2022-12-29T10:36:15;9.90;67.50
16032;DHT22;8120;48.308;8.914;2022-12-29T10:38:48;10.00;67.90
16032;DHT22;8120;48.308;8.914;2022-12-29T10:41:23;10.10;67.60
16032;DHT22;8120;48.308;8.914;2022-12-29T10:43:54;10.00;68.50
16032;DHT22;8120;48.308;8.914;2022-12-29T10:46:27;10.00;69.00
16032;DHT22;8120;48.308;8.914;2022-12-29T10:48:57;9.90;69.30
16032;DHT22;8120;48.308;8.914;2022-12-29T10:51:29;9.90;69.70
16032;DHT22;8120;48.308;8.914;2022-12-29T10:54:00;9.80;70.50
16032;DHT22;8120;48.308;8.914;2022-12-29T10:59:01;9.60;74.20
16032;DHT22;8120;48.308;8.914;2022-12-29T11:01:34;9.50;75.70
16032;DHT22;8120;48.308;8.914;2022-12-29T11:04:22;9.40;76.40
16032;DHT22;8120;48.308;8.914;2022-12-29T11:06:54;9.30;77.90
16032;DHT22;8120;48.308;8.914;2022-12-29T11:09:26;9.30;78.50
16032;DHT22;8120;48.308;8.914;2022-12-29T11:12:19;9.20;78.20
16032;DHT22;8120;48.308;8.914;2022-12-29T11:14:47;9.10;79.00
16032;DHT22;8120;48.308;8.914;2022-12-29T11:17:27;9.10;79.20
16032;DHT22;8120;48.308;8.914;2022-12-29T11:19:55;9.10;78.30
16032;DHT22;8120;48.308;8.914;2022-12-29T11:22:26;9.10;78.30
16032;DHT22;8120;48.308;8.914;2022-12-29T11:25:05;9.10;77.50
16032;DHT22;8120;48.308;8.914;2022-12-29T11:27:33;9.20;77.10
16032;DHT22;8120;48.308;8.914;2022-12-29T11:30:01;9.20;77.00
16032;DHT22;8120;48.308;8.914;2022-12-29T11:32:30;9.30;76.50
16032;DHT22;8120;48.308;8.914;2022-12-29T11:34:58;9.40;75.90
16032;DHT22;8120;48.308;8.914;2022-12-29T11:37:31;9.50;75.10
16032;DHT22;8120;48.308;8.914;2022-12-29T11:40:02;9.50;75.70
16032;DHT22;8120;48.308;8.914;2022-12-29T11:42:35;9.50;75.20
16032;DHT22;8120;48.308;8.914;2022-12-29T11:45:06;9.50;74.70
16032;DHT22;8120;48.308;8.914;2022-12-29T11:47:37;9.40;75.70
16032;DHT22;8120;48.308;8.914;2022-12-29T11:50:07;9.30;76.60
16032;DHT22;8120;48.308;8.914;2022-12-29T11:52:37;9.20;77.50
16032;DHT22;8120;48.308;8.914;2022-12-29T11:55:17;9.10;79.20
16032;DHT22;8120;48.308;8.914;2022-12-29T11:57:46;9.00;80.40
16032;DHT22;8120;48.308;8.914;2022-12-29T12:00:16;8.90;80.90
16032;DHT22;8120;48.308;8.914;2022-12-29T12:02:50;8.90;80.50
16032;DHT22;8120;48.308;8.914;2022-12-29T12:05:23;9.00;80.30
16032;DHT22;8120;48.308;8.914;2022-12-29T12:07:59;9.00;79.50
16032;DHT22;8120;48.308;8.914;2022-12-29T12:10:32;9.00;80.10
16032;DHT22;8120;48.308;8.914;2022-12-29T12:13:11;9.10;80.00
16032;DHT22;8120;48.308;8.914;2022-12-29T12:15:44;9.30;78.70
16032;DHT22;8120;48.308;8.914;2022-12-29T12:18:31;9.40;78.20
16032;DHT22;8120;48.308;8.914;2022-12-29T12:21:05;9.40;77.00
16032;DHT22;8120;48.308;8.914;2022-12-29T12:23:44;9.50;77.80
16032;DHT22;8120;48.308;8.914;2022-12-29T12:26:21;9.40;78.60
16032;DHT22;8120;48.308;8.914;2022-12-29T12:28:53;9.30;78.70
16032;DHT22;8120;48.308;8.914;2022-12-29T12:31:33;9.30;78.70
16032;DHT22;8120;48.308;8.914;2022-12-29T12:34:08;9.30;79.30
16032;DHT22;8120;48.308;8.914;2022-12-29T12:36:49;9.20;81.00
16032;DHT22;8120;48.308;8.914;2022-12-29T12:39:26;9.20;81.00
16032;DHT22;8120;48.308;8.914;2022-12-29T12:42:05;9.10;81.90
16032;DHT22;8120;48.308;8.914;2022-12-29T12:44:44;9.10;81.50
16032;DHT22;8120;48.308;8.914;2022-12-29T12:47:30;9.20;81.10
16032;DHT22;8120;48.308;8.914;2022-12-29T12:50:23;9.20;80.50
16032;DHT22;8120;48.308;8.914;2022-12-29T12:53:04;9.20;80.20
16032;DHT22;8120;48.308;8.914;2022-12-29T12:55:49;9.20;80.10
16032;DHT22;8120;48.308;8.914;2022-12-29T12:58:27;9.20;80.50
16032;DHT22;8120;48.308;8.914;2022-12-29T13:01:11;9.20;81.10
16032;DHT22;8120;48.308;8.914;2022-12-29T13:03:53;9.20;81.10
16032;DHT22;8120;48.308;8.914;2022-12-29T13:06:36;9.30;80.00
16032;DHT22;8120;48.308;8.914;2022-12-29T13:09:23;9.30;79.30
16032;DHT22;8120;48.308;8.914;2022-12-29T13:12:07;9.50;78.80
16032;DHT22;8120;48.308;8.914;2022-12-29T13:14:47;9.50;78.60
16032;DHT22;8120;48.308;8.914;2022-12-29T13:17:25;9.60;78.10
16032;DHT22;8120;48.308;8.914;2022-12-29T13:20:03;9.50;78.40
16032;DHT22;8120;48.308;8.914;2022-12-29T13:22:41;9.60;77.20
16032;DHT22;8120;48.308;8.914;2022-12-29T13:25:22;9.60;77.60
16032;DHT22;8120;48.308;8.914;2022-12-29T13:27:58;9.60;77.40
16032;DHT22;8120;48.308;8.914;2022-12-29T13:30:32;9.50;77.30
16032;DHT22;8120;48.308;8.914;2022-12-29T13:33:07;9.50;78.10
16032;DHT22;8120;48.308;8.914;2022-12-29T13:35:54;9.40;78.50
16032;DHT22;8120;48.308;8.914;2022-12-29T13:38:26;9.40;80.00
16032;DHT22;8120;48.308;8.914;2022-12-29T13:41:00;9.30;80.40
16032;DHT22;8120;48.308;8.914;2022-12-29T13:43:32;9.20;80.50
16032;DHT22;8120;48.308;8.914;2022-12-29T13:46:06;9.30;79.60
16032;DHT22;8120;48.308;8.914;2022-12-29T13:48:39;9.30;80.50
16032;DHT22;8120;48.308;8.914;2022-12-29T13:51:09;9.30;80.00
16032;DHT22;8120;48.308;8.914;2022-12-29T13:53:49;9.40;78.40
16032;DHT22;8120;48.308;8.914;2022-12-29T13:56:24;9.50;79.10
16032;DHT22;8120;48.308;8.914;2022-12-29T13:58:58;9.70;77.70
16032;DHT22;8120;48.308;8.914;2022-12-29T14:01:34;9.70;77.70
16032;DHT22;8120;48.308;8.914;2022-12-29T14:04:09;9.70;77.30
16032;DHT22;8120;48.308;8.914;2022-12-29T14:06:38;9.80;75.50
16032;DHT22;8120;48.308;8.914;2022-12-29T14:09:38;9.80;75.40
16032;DHT22;8120;48.308;8.914;2022-12-29T14:12:27;9.80;75.30
16032;DHT22;8120;48.308;8.914;2022-12-29T14:15:05;9.80;75.40
16032;DHT22;8120;48.308;8.914;2022-12-29T14:17:34;9.90;74.60
16032;DHT22;8120;48.308;8.914;2022-12-29T14:20:03;9.80;74.60
16032;DHT22;8120;48.308;8.914;2022-12-29T14:22:34;9.80;75.20
16032;DHT22;8120;48.308;8.914;2022-12-29T14:25:02;9.70;74.70
16032;DHT22;8120;48.308;8.914;2022-12-29T14:27:44;9.70;74.80
16032;DHT22;8120;48.308;8.914;2022-12-29T14:30:53;9.70;74.60
16032;DHT22;8120;48.308;8.914;2022-12-29T14:33:23;9.70;75.00
16032;DHT22;8120;48.308;8.914;2022-12-29T14:35:53;9.70;74.10
16032;DHT22;8120;48.308;8.914;2022-12-29T14:38:27;9.80;74.10
16032;DHT22;8120;48.308;8.914;2022-12-29T14:44:10;9.70;74.30
16032;DHT22;8120;48.308;8.914;2022-12-29T14:46:54;9.70;74.00
16032;DHT22;8120;48.308;8.914;2022-12-29T14:49:24;9.70;74.20
16032;DHT22;8120;48.308;8.914;2022-12-29T14:51:54;9.70;73.20
16032;DHT22;8120;48.308;8.914;2022-12-29T14:54:43;9.70;73.10
16032;DHT22;8120;48.308;8.914;2022-12-29T14:57:22;9.70;73.90
16032;DHT22;8120;48.308;8.914;2022-12-29T14:59:54;9.70;73.70
16032;DHT22;8120;48.308;8.914;2022-12-29T15:02:26;9.60;74.40
16032;DHT22;8120;48.308;8.914;2022-12-29T15:05:00;9.50;74.90
16032;DHT22;8120;48.308;8.914;2022-12-29T15:07:30;9.60;73.50
16032;DHT22;8120;48.308;8.914;2022-12-29T15:10:05;9.60;74.20
16032;DHT22;8120;48.308;8.914;2022-12-29T15:12:37;9.50;73.90
16032;DHT22;8120;48.308;8.914;2022-12-29T15:15:18;9.50;73.60
16032;DHT22;8120;48.308;8.914;2022-12-29T15:17:47;9.50;74.00
16032;DHT22;8120;48.308;8.914;2022-12-29T15:20:22;9.50;73.70
16032;DHT22;8120;48.308;8.914;2022-12-29T15:22:54;9.50;74.00
16032;DHT22;8120;48.308;8.914;2022-12-29T15:25:23;9.50;74.40
16032;DHT22;8120;48.308;8.914;2022-12-29T15:27:52;9.40;75.00
16032;DHT22;8120;48.308;8.914;2022-12-29T15:30:21;9.30;75.30
16032;DHT22;8120;48.308;8.914;2022-12-29T15:32:51;9.10;76.10
16032;DHT22;8120;48.308;8.914;2022-12-29T15:35:28;9.10;75.70
16032;DHT22;8120;48.308;8.914;2022-12-29T15:37:58;9.20;75.30
16032;DHT22;8120;48.308;8.914;2022-12-29T15:40:29;9.20;75.40
16032;DHT22;8120;48.308;8.914;2022-12-29T15:43:07;9.10;75.70
16032;DHT22;8120;48.308;8.914;2022-12-29T15:45:37;9.00;75.70
16032;DHT22;8120;48.308;8.914;2022-12-29T15:48:13;9.10;75.30
16032;DHT22;8120;48.308;8.914;2022-12-29T15:50:42;9.00;75.30
16032;DHT22;8120;48.308;8.914;2022-12-29T15:53:12;8.90;75.10
16032;DHT22;8120;48.308;8.914;2022-12-29T15:55:41;9.00;74.80
16032;DHT22;8120;48.308;8.914;2022-12-29T15:58:20;8.90;74.90
16032;DHT22;8120;48.308;8.914;2022-12-29T16:00:49;9.00;74.00
16032;DHT22;8120;48.308;8.914;2022-12-29T16:03:21;8.90;74.00
16032;DHT22;8120;48.308;8.914;2022-12-29T16:05:52;9.00;73.50
16032;DHT22;8120;48.308;8.914;2022-12-29T16:08:31;8.90;73.80
16032;DHT22;8120;48.308;8.914;2022-12-29T16:11:01;9.00;73.00
16032;DHT22;8120;48.308;8.914;2022-12-29T16:13:32;9.00;72.80
16032;DHT22;8120;48.308;8.914;2022-12-29T16:16:09;9.00;73.30
16032;DHT22;8120;48.308;8.914;2022-12-29T16:18:41;9.20;71.30
16032;DHT22;8120;48.308;8.914;2022-12-29T16:21:16;9.30;71.50
16032;DHT22;8120;48.308;8.914;2022-12-29T16:23:49;9.30;72.00
16032;DHT22;8120;48.308;8.914;2022-12-29T16:30:07;9.10;73.00
16032;DHT22;8120;48.308;8.914;2022-12-29T16:32:46;9.10;73.30
16032;DHT22;8120;48.308;8.914;2022-12-29T16:35:18;9.10;73.90
16032;DHT22;8120;48.308;8.914;2022-12-29T16:37:47;9.00;74.10
16032;DHT22;8120;48.308;8.914;2022-12-29T16:40:27;9.10;73.90
16032;DHT22;8120;48.308;8.914;2022-12-29T16:42:58;9.10;73.70
16032;DHT22;8120;48.308;8.914;2022-12-29T16:48:26;9.20;73.20